Time;durP1;ratioP1;P1;durP2;ratioP2;P2;SDS_P1;SDS_P2;PMS_P1;PMS_P2;Temp;Humidity;BMP_temperature;BMP_pressure;BME280_temperature;BME280_humidity;BME280_pressure;Samples;Min_cycle;Max_cycle;Signal;HPM_P1;HPM_P2
2023/05/09 06:26:51;;;;;;;12.88;9.10;;;;;;;13.44;100.00;96684.09;2089046;28;20551;-56
2023/05/09 06:27:52;;;;;;;13.00;9.25;;;;;;;13.62;100.00;96701.41;2089514;28;20727;-56
2023/05/09 06:28:54;;;;;;;13.20;9.00;;;;;;;13.74;100.00;96696.41;2090661;28;20204;-56
2023/05/09 06:29:56;;;;;;;12.10;8.38;;;;;;;13.52;100.00;96708.97;2089433;28;20247;-56
2023/05/09 06:30:57;;;;;;;15.30;10.35;;;;;;;13.81;100.00;96705.63;2086149;28;20203;-56
2023/05/09 06:31:59;;;;;;;13.50;8.93;;;;;;;13.93;100.00;96711.94;2084683;28;20232;-56
2023/05/09 06:33:01;;;;;;;16.00;9.45;;;;;;;14.02;100.00;96701.78;2084681;28;20254;-56
2023/05/09 06:34:03;;;;;;;11.45;8.13;;;;;;;14.07;100.00;96692.78;2083886;28;20197;-56
2023/05/09 06:35:05;;;;;;;12.70;8.77;;;;;;;14.20;100.00;96705.09;2086040;28;20224;-55
2023/05/09 06:36:07;;;;;;;11.32;7.80;;;;;;;14.20;100.00;96701.63;2083239;28;20259;-55
2023/05/09 06:37:08;;;;;;;10.30;7.40;;;;;;;14.29;99.65;96700.25;2085093;28;20199;-56
2023/05/09 06:38:09;;;;;;;14.90;6.90;;;;;;;14.31;98.44;96704.50;2085680;28;20201;-56
2023/05/09 06:39:11;;;;;;;11.05;7.80;;;;;;;14.61;97.03;96695.69;2084555;28;20205;-56
2023/05/09 06:40:12;;;;;;;9.20;6.90;;;;;;;14.88;97.64;96696.78;2085953;28;20689;-59
2023/05/09 06:41:14;;;;;;;11.05;8.05;;;;;;;14.79;96.45;96699.06;2080302;28;20225;-59
2023/05/09 06:42:15;;;;;;;10.43;7.45;;;;;;;14.47;95.81;96695.69;2076132;28;20212;-59
2023/05/09 06:43:17;;;;;;;11.90;7.93;;;;;;;14.75;95.83;96696.69;2075557;28;20774;-59
2023/05/09 06:44:18;;;;;;;10.23;7.35;;;;;;;15.04;94.76;96692.28;2075919;28;20229;-59
2023/05/09 06:45:20;;;;;;;7.20;5.75;;;;;;;14.95;94.58;96698.13;2076407;28;20197;-59
2023/05/09 06:46:21;;;;;;;8.05;5.82;;;;;;;15.11;94.19;96688.34;2074902;28;20225;-59
2023/05/09 06:47:23;;;;;;;9.18;6.45;;;;;;;15.19;93.17;96696.56;2074221;28;20201;-59
2023/05/09 06:48:25;;;;;;;8.85;6.35;;;;;;;15.08;94.07;96693.78;2074799;28;20809;-59
2023/05/09 06:49:27;;;;;;;7.53;6.28;;;;;;;14.66;96.25;96691.03;2075500;28;20229;-59
2023/05/09 06:50:28;;;;;;;10.20;6.10;;;;;;;14.23;97.77;96687.50;2076454;28;20231;-59
2023/05/09 06:51:33;;;;;;;16.63;7.55;;;;;;;14.36;98.62;96683.22;2073841;28;20222;-59
2023/05/09 06:52:34;;;;;;;9.88;6.18;;;;;;;14.80;97.22;96681.50;2077748;28;20197;-59
2023/05/09 06:53:36;;;;;;;8.80;5.75;;;;;;;14.96;95.81;96674.34;2076914;28;20196;-59
2023/05/09 06:54:38;;;;;;;8.20;5.88;;;;;;;15.02;95.54;96678.41;2077603;28;20232;-60
2023/05/09 06:55:40;;;;;;;12.07;6.43;;;;;;;14.83;95.61;96679.53;2076731;28;20197;-60
2023/05/09 06:56:41;;;;;;;8.80;6.40;;;;;;;14.82;95.47;96677.81;2075566;28;20193;-59
2023/05/09 06:57:43;;;;;;;11.52;6.50;;;;;;;15.23;92.73;96678.00;2074328;28;20630;-60
2023/05/09 06:58:44;;;;;;;13.80;6.00;;;;;;;15.27;92.41;96677.69;2074755;28;20210;-60
2023/05/09 06:59:46;;;;;;;8.85;6.07;;;;;;;15.51;93.32;96679.69;2072797;28;20198;-60
2023/05/09 07:00:47;;;;;;;8.32;6.20;;;;;;;15.64;92.91;96675.34;2072965;28;20201;-60
2023/05/09 07:01:49;;;;;;;8.40;6.28;;;;;;;15.55;92.44;96673.28;2072860;28;20212;-60
2023/05/09 07:02:50;;;;;;;7.32;6.07;;;;;;;15.67;92.98;96674.31;2073870;28;20201;-61
2023/05/09 07:03:52;;;;;;;7.57;6.00;;;;;;;16.00;91.52;96670.44;2076852;28;20252;-61
2023/05/09 07:04:53;;;;;;;9.07;6.43;;;;;;;16.00;91.04;96670.44;2075671;28;20220;-61
2023/05/09 07:05:57;;;;;;;9.73;6.40;;;;;;;15.98;90.24;96673.16;2075260;28;20201;-61
2023/05/09 07:06:59;;;;;;;10.57;6.30;;;;;;;16.19;89.00;96675.34;2076144;28;20608;-61
2023/05/09 07:08:01;;;;;;;10.43;7.13;;;;;;;16.08;89.45;96669.94;2075226;28;20566;-61
2023/05/09 07:09:03;;;;;;;8.65;6.40;;;;;;;15.81;89.71;96674.28;2076420;28;20632;-61
2023/05/09 07:10:05;;;;;;;10.60;6.80;;;;;;;15.90;90.64;96664.09;2076445;28;20236;-61
2023/05/09 07:11:12;;;;;;;9.50;7.50;;;;;;;15.57;92.22;96679.31;2074233;28;20309;-61
2023/05/09 07:12:14;;;;;;;10.10;6.88;;;;;;;15.72;92.59;96672.22;2072954;28;20205;-61
2023/05/09 07:13:15;;;;;;;8.27;5.68;;;;;;;15.73;90.83;96675.69;2072366;28;20209;-61
2023/05/09 07:14:17;;;;;;;10.63;6.80;;;;;;;15.35;93.07;96674.59;2076947;28;20463;-60
2023/05/09 07:15:18;;;;;;;11.23;6.78;;;;;;;14.90;94.71;96669.47;2075288;28;20676;-60
2023/05/09 07:16:40;;;;;;;12.70;9.65;;;;;;;15.32;93.27;96672.97;2074648;28;20751;-60
2023/05/09 07:17:41;;;;;;;12.32;7.10;;;;;;;15.39;93.33;96676.06;2073917;28;20237;-60
2023/05/09 07:18:43;;;;;;;15.45;7.30;;;;;;;15.38;93.30;96663.88;2074685;28;20583;-60
2023/05/09 07:19:44;;;;;;;13.75;7.72;;;;;;;15.08;93.97;96664.84;2075542;28;20660;-60
2023/05/09 07:20:46;;;;;;;15.68;8.27;;;;;;;15.28;94.50;96662.75;2075481;28;20193;-61
2023/05/09 07:21:47;;;;;;;8.50;6.53;;;;;;;15.66;92.92;96655.03;2077229;28;20209;-61
2023/05/09 07:22:49;;;;;;;9.88;7.63;;;;;;;15.33;92.54;96655.41;2077210;28;20197;-61
2023/05/09 07:23:50;;;;;;;15.70;7.70;;;;;;;15.84;91.72;96652.16;2074587;28;20244;-60
2023/05/09 07:24:52;;;;;;;11.45;8.23;;;;;;;15.30;93.08;96648.56;2077405;28;20251;-61
2023/05/09 07:26:00;;;;;;;11.85;7.68;;;;;;;15.05;92.65;96646.63;2075302;28;20280;-61
2023/05/09 07:27:02;;;;;;;13.32;7.60;;;;;;;15.22;92.93;96644.72;2076560;28;20210;-60
2023/05/09 07:28:04;;;;;;;13.80;8.40;;;;;;;15.25;93.39;96642.75;2076851;28;20609;-60
2023/05/09 07:29:06;;;;;;;10.75;8.93;;;;;;;15.28;93.84;96646.97;2074626;28;20208;-61
2023/05/09 07:30:08;;;;;;;11.05;7.78;;;;;;;15.11;93.55;96635.75;2075635;28;20198;-60
2023/05/09 07:31:09;;;;;;;15.07;8.43;;;;;;;14.94;93.85;96634.16;2076599;28;20221;-60
2023/05/09 07:32:11;;;;;;;9.75;7.60;;;;;;;14.98;95.54;96637.44;2076941;28;20189;-61
2023/05/09 07:33:12;;;;;;;12.25;8.43;;;;;;;15.16;95.12;96627.53;2077598;28;20280;-60
2023/05/09 07:34:15;;;;;;;11.80;8.30;;;;;;;15.11;94.24;96633.09;2077443;28;20228;-60
2023/05/09 07:35:18;;;;;;;12.20;8.07;;;;;;;14.98;94.34;96632.19;2078220;28;20451;-59
2023/05/09 07:36:20;;;;;;;13.85;9.32;;;;;;;15.11;94.50;96634.88;2074758;28;20225;-59
2023/05/09 07:37:21;;;;;;;12.02;7.75;;;;;;;15.22;94.02;96631.56;2074887;28;20277;-59
2023/05/09 07:38:22;;;;;;;16.00;8.88;;;;;;;15.45;93.46;96625.69;2069417;28;20257;-59
2023/05/09 07:39:24;;;;;;;10.40;7.82;;;;;;;15.72;91.00;96600.28;2070785;28;20309;-59
2023/05/09 07:40:25;;;;;;;9.80;8.00;;;;;;;16.18;89.18;96623.59;2071411;28;20645;-59
2023/05/09 07:41:26;;;;;;;10.68;7.93;;;;;;;16.48;89.53;96625.91;2071611;28;20233;-58
2023/05/09 07:42:29;;;;;;;16.30;8.98;;;;;;;16.33;88.11;96629.63;2070268;28;20198;-59
2023/05/09 07:43:30;;;;;;;13.00;8.07;;;;;;;16.56;88.02;96622.75;2070768;28;20242;-59
2023/05/09 07:44:32;;;;;;;11.65;7.95;;;;;;;16.71;88.21;96625.25;2071080;28;20200;-59
2023/05/09 07:45:33;;;;;;;12.40;8.88;;;;;;;16.25;87.23;96626.63;2070435;28;20206;-59
2023/05/09 07:46:40;;;;;;;13.13;8.52;;;;;;;15.76;89.96;96621.06;2071381;28;20226;-59
2023/05/09 07:47:42;;;;;;;13.30;7.82;;;;;;;15.61;91.26;96619.44;2070373;28;20201;-58
2023/05/09 07:48:43;;;;;;;12.25;8.10;;;;;;;15.86;90.80;96610.78;2071292;28;20715;-59
2023/05/09 07:49:46;;;;;;;13.98;7.85;;;;;;;15.85;90.01;96614.38;2070865;28;20662;-59
2023/05/09 07:50:48;;;;;;;14.38;8.43;;;;;;;15.72;92.32;96611.69;2070995;28;20201;-59
2023/05/09 07:51:49;;;;;;;11.10;8.38;;;;;;;15.47;91.65;96607.16;2068957;28;20209;-59
2023/05/09 07:52:51;;;;;;;14.10;9.00;;;;;;;15.54;90.88;96607.59;2071904;28;20209;-59
2023/05/09 07:53:55;;;;;;;14.07;9.88;;;;;;;15.09;92.79;96608.69;2071124;28;20828;-59
2023/05/09 07:54:56;;;;;;;14.60;8.98;;;;;;;15.56;91.47;96611.81;2069224;28;20281;-60
2023/05/09 07:55:57;;;;;;;12.65;9.40;;;;;;;16.03;89.30;96608.81;2069004;28;20313;-60
2023/05/09 07:56:59;;;;;;;11.65;8.40;;;;;;;16.29;88.85;96612.31;2068728;28;20621;-60
2023/05/09 07:58:00;;;;;;;12.45;8.48;;;;;;;15.85;88.72;96605.63;2066366;28;20206;-60
2023/05/09 07:59:02;;;;;;;12.68;9.32;;;;;;;16.25;87.93;96609.06;2067853;28;20190;-63
2023/05/09 08:00:05;;;;;;;11.30;8.45;;;;;;;16.44;86.00;96600.72;2071215;28;20193;-60
2023/05/09 08:01:06;;;;;;;13.05;9.82;;;;;;;16.37;86.22;96604.72;2070008;28;20232;-59
2023/05/09 08:02:08;;;;;;;13.05;9.13;;;;;;;15.66;89.84;96605.00;2070343;28;21122;-60
2023/05/09 08:03:09;;;;;;;12.52;9.43;;;;;;;15.39;91.35;96602.41;2070559;28;20272;-60
2023/05/09 08:04:11;;;;;;;16.65;10.70;;;;;;;15.65;91.12;96598.06;2071990;28;20628;-60
2023/05/09 08:05:12;;;;;;;12.95;8.52;;;;;;;16.07;90.51;96600.59;2072167;28;20235;-60
2023/05/09 08:06:14;;;;;;;12.63;9.20;;;;;;;16.19;89.93;96600.72;2067957;28;20230;-60
2023/05/09 08:07:16;;;;;;;15.27;10.10;;;;;;;16.18;89.71;96604.31;2069504;28;20206;-59
2023/05/09 08:08:17;;;;;;;11.00;8.55;;;;;;;15.91;88.85;96605.19;2071123;28;20205;-59
2023/05/09 08:09:20;;;;;;;13.45;9.73;;;;;;;15.55;90.71;96596.16;2070831;28;20782;-60
2023/05/09 08:10:22;;;;;;;12.32;8.60;;;;;;;15.34;90.91;96600.06;2069545;28;20205;-60
2023/05/09 08:11:23;;;;;;;13.35;8.65;;;;;;;15.14;91.62;96603.97;2069179;28;20276;-59
2023/05/09 08:12:25;;;;;;;11.15;8.63;;;;;;;15.27;90.71;96597.94;2071295;28;20678;-60
2023/05/09 08:13:26;;;;;;;12.20;8.40;;;;;;;15.43;89.58;96603.06;2071624;28;20514;-59
2023/05/09 08:20:24;;;;;;;12.20;8.43;;;;;;;15.85;90.41;96581.94;2083596;28;20561;-58
2023/05/09 08:21:26;;;;;;;11.35;8.43;;;;;;;15.89;89.74;96575.50;2068571;28;20225;-58
2023/05/09 08:22:27;;;;;;;12.35;8.70;;;;;;;15.68;90.12;96573.34;2083026;28;20615;-59
2023/05/09 08:23:29;;;;;;;20.48;8.55;;;;;;;15.58;90.58;96578.38;2086747;28;20212;-59
2023/05/09 08:25:53;;;;;;;12.70;8.88;;;;;;;15.58;91.59;96593.28;2087378;27;20919;-57
2023/05/09 08:26:54;;;;;;;12.90;9.07;;;;;;;15.52;90.50;96582.22;2076536;28;20227;-58
2023/05/09 08:27:56;;;;;;;16.50;9.85;;;;;;;15.58;90.86;96580.13;2078394;28;20197;-57
2023/05/09 08:28:57;;;;;;;15.95;9.35;;;;;;;15.61;90.97;96580.78;2077270;28;20208;-57
2023/05/09 08:29:59;;;;;;;12.52;9.75;;;;;;;15.46;91.46;96576.53;2080189;28;20211;-57
2023/05/09 08:31:00;;;;;;;14.02;9.48;;;;;;;15.64;91.50;96577.09;2070070;28;20221;-57
2023/05/09 08:32:02;;;;;;;14.07;9.88;;;;;;;15.85;90.33;96582.78;2071746;28;20197;-57
2023/05/09 08:33:03;;;;;;;12.55;7.95;;;;;;;16.14;88.96;96578.16;2078391;28;20208;-57
2023/05/09 08:34:05;;;;;;;11.93;8.07;;;;;;;15.93;89.10;96572.56;2078076;28;20205;-57
2023/05/09 08:35:07;;;;;;;16.95;8.45;;;;;;;15.90;90.25;96577.22;2078632;28;20197;-58
2023/05/09 08:36:09;;;;;;;14.00;8.70;;;;;;;15.96;89.02;96572.38;2079777;28;20228;-57
2023/05/09 08:37:10;;;;;;;11.25;8.52;;;;;;;15.67;89.97;96580.38;2079398;28;20205;-57
2023/05/09 08:38:15;;;;;;;15.80;9.35;;;;;;;15.67;89.66;96574.28;2078332;28;20204;-57
2023/05/09 08:39:17;;;;;;;16.10;8.68;;;;;;;15.66;90.37;96581.31;2077902;28;20201;-58
2023/05/09 08:40:19;;;;;;;13.18;8.93;;;;;;;15.67;91.63;96575.13;2077983;28;20244;-57
2023/05/09 08:41:27;;;;;;;11.88;8.13;;;;;;;15.72;90.03;96580.09;2077571;28;20251;-57
2023/05/09 08:42:30;;;;;;;11.52;8.90;;;;;;;15.74;90.83;96580.81;2080444;28;20754;-57
2023/05/09 08:43:33;;;;;;;10.23;8.18;;;;;;;15.72;91.28;96577.44;2077541;28;20201;-57
2023/05/09 08:44:34;;;;;;;10.50;7.90;;;;;;;15.40;91.90;96567.28;2069402;28;20245;-57
2023/05/09 08:45:45;;;;;;;17.25;9.30;;;;;;;15.68;91.44;96579.44;2070299;28;20216;-57
2023/05/09 08:46:48;;;;;;;11.13;8.05;;;;;;;15.72;91.33;96577.44;2070213;28;20256;-57
2023/05/09 08:47:51;;;;;;;12.55;7.70;;;;;;;15.65;91.37;96576.16;2069143;28;20193;-57
2023/05/09 08:48:53;;;;;;;10.38;7.30;;;;;;;15.73;92.36;96579.16;2070088;28;20201;-57
2023/05/09 08:49:55;;;;;;;18.80;7.88;;;;;;;15.88;90.38;96579.09;2070487;28;20312;-59
2023/05/09 08:50:57;;;;;;;12.20;7.57;;;;;;;15.91;89.41;96570.97;2069728;28;20671;-59
2023/05/09 08:51:58;;;;;;;9.32;7.22;;;;;;;15.99;89.05;96569.50;2069962;28;20233;-59
2023/05/09 08:53:00;;;;;;;10.10;7.35;;;;;;;15.73;88.47;96568.63;2069998;28;20198;-59
2023/05/09 08:54:02;;;;;;;13.52;8.18;;;;;;;15.96;87.74;96575.00;2070140;28;20198;-59
2023/05/09 08:55:04;;;;;;;11.38;7.55;;;;;;;16.21;87.26;96565.41;2061829;28;20289;-59
2023/05/09 08:56:06;;;;;;;16.67;7.20;;;;;;;16.19;87.94;96563.81;2063802;28;20222;-61
2023/05/09 08:57:07;;;;;;;66.38;41.58;;;;;;;16.44;87.20;96562.97;2070307;28;20202;-63
2023/05/09 08:58:09;;;;;;;39.92;23.95;;;;;;;16.46;86.45;96554.00;2070437;28;20202;-61
2023/05/09 08:59:12;;;;;;;10.18;6.93;;;;;;;16.20;84.57;96550.56;2070227;28;20198;-63
2023/05/09 09:00:16;;;;;;;11.77;6.78;;;;;;;16.16;85.81;96555.22;2069406;28;20259;-61
2023/05/09 09:01:22;;;;;;;8.43;5.85;;;;;;;16.11;84.50;96535.38;2067910;28;20221;-61
2023/05/09 09:02:23;;;;;;;8.25;5.85;;;;;;;16.40;84.26;96548.34;2060117;28;20229;-63
2023/05/09 09:03:26;;;;;;;8.95;6.32;;;;;;;16.73;83.77;96553.00;2065171;28;20198;-61
2023/05/09 09:04:27;;;;;;;7.47;5.72;;;;;;;16.79;83.70;96554.38;2069939;28;20615;-61
2023/05/09 09:05:32;;;;;;;12.85;6.75;;;;;;;17.02;82.50;96547.50;2069844;28;20194;-60
2023/05/09 09:06:43;;;;;;;9.30;6.10;;;;;;;17.35;79.99;96543.34;2068472;28;20218;-60
2023/05/09 09:07:45;;;;;;;9.23;6.93;;;;;;;17.43;80.17;96534.84;2069150;28;20248;-60
2023/05/09 09:08:47;;;;;;;7.85;5.78;;;;;;;17.26;80.60;96533.47;2070177;28;20281;-60
2023/05/09 09:09:50;;;;;;;7.38;5.07;;;;;;;17.33;80.19;96540.00;2067962;28;20863;-60
2023/05/09 09:10:53;;;;;;;6.93;5.57;;;;;;;17.24;79.92;96536.22;2068919;28;20210;-60
2023/05/09 09:11:55;;;;;;;6.75;4.20;;;;;;;17.36;80.34;96539.75;2069439;28;20194;-60
2023/05/09 09:12:59;;;;;;;8.38;4.65;;;;;;;17.22;79.91;96535.50;2069106;28;20205;-60
2023/05/09 09:14:12;;;;;;;8.30;5.10;;;;;;;17.21;80.15;96538.25;2070077;28;20222;-60
2023/05/09 09:15:17;;;;;;;7.28;4.93;;;;;;;17.25;79.80;96542.34;2069012;28;20708;-60
2023/05/09 09:16:21;;;;;;;6.85;4.57;;;;;;;17.38;79.17;96529.94;2068110;28;20256;-60
2023/05/09 09:17:29;;;;;;;7.80;5.05;;;;;;;17.49;78.35;96530.94;2069863;28;20606;-60
2023/05/09 09:18:32;;;;;;;7.88;5.03;;;;;;;17.65;77.43;96528.84;2069548;28;20296;-59
2023/05/09 09:19:35;;;;;;;9.13;5.18;;;;;;;17.57;78.18;96520.63;2072480;28;20193;-59
2023/05/09 09:20:45;;;;;;;6.25;5.10;;;;;;;17.53;77.79;96527.09;2069566;28;20194;-59
2023/05/09 09:21:48;;;;;;;8.02;5.53;;;;;;;17.61;77.17;96522.06;2069164;28;20221;-59
2023/05/09 09:22:51;;;;;;;6.90;4.78;;;;;;;17.82;77.08;96522.25;2070799;28;20579;-60
2023/05/09 09:23:54;;;;;;;6.65;4.93;;;;;;;17.90;76.95;96514.63;2069240;28;20202;-60
2023/05/09 09:24:56;;;;;;;7.20;4.43;;;;;;;18.27;76.44;96517.09;2068806;28;20202;-59
2023/05/09 09:26:03;;;;;;;6.70;4.93;;;;;;;18.55;75.75;96506.97;2069007;28;20310;-60
2023/05/09 09:27:05;;;;;;;11.23;4.00;;;;;;;18.56;75.80;96519.25;2069871;28;20794;-59
2023/05/09 09:28:07;;;;;;;8.70;3.45;;;;;;;18.09;76.70;96514.06;2069692;28;20198;-60
2023/05/09 09:29:08;;;;;;;5.82;3.90;;;;;;;18.04;75.01;96487.16;2069782;28;20642;-59
2023/05/09 09:30:11;;;;;;;7.57;4.30;;;;;;;17.94;76.07;96508.16;2069746;28;20297;-60
2023/05/09 09:31:27;;;;;;;5.80;4.28;;;;;;;18.08;75.67;96511.53;2070782;28;20317;-59
2023/05/09 09:32:33;;;;;;;7.15;4.47;;;;;;;18.36;75.53;96504.09;2069248;28;20212;-59
2023/05/09 09:33:34;;;;;;;6.60;4.32;;;;;;;18.54;75.61;96504.47;2071147;28;20200;-59
2023/05/09 09:34:36;;;;;;;10.25;4.80;;;;;;;18.81;74.75;96509.34;2071624;28;20229;-59
2023/05/09 09:35:38;;;;;;;6.40;3.60;;;;;;;19.13;74.94;96502.44;2070185;28;20229;-60
2023/05/09 09:36:40;;;;;;;6.78;3.90;;;;;;;19.32;73.51;96505.25;2066650;28;20624;-60
2023/05/09 09:37:42;;;;;;;4.68;3.58;;;;;;;19.18;73.31;96500.28;2065246;28;20693;-60
2023/05/09 09:38:44;;;;;;;5.85;3.85;;;;;;;19.07;72.44;96504.63;2067048;28;20207;-59
2023/05/09 09:39:57;;;;;;;5.13;3.90;;;;;;;19.01;73.10;96506.94;2066522;28;20194;-59
2023/05/09 09:40:58;;;;;;;7.32;4.13;;;;;;;19.00;73.21;96497.31;2064929;28;20649;-59
2023/05/09 09:42:10;;;;;;;7.30;3.92;;;;;;;19.46;71.59;96492.69;2064785;28;20600;-60
2023/05/09 09:43:13;;;;;;;5.90;2.85;;;;;;;19.31;71.87;96492.16;2063367;28;20194;-59
2023/05/09 09:44:17;;;;;;;4.93;3.25;;;;;;;19.21;72.04;96498.22;2064437;28;20195;-60
2023/05/09 09:45:19;;;;;;;6.90;4.72;;;;;;;18.86;71.90;96493.13;2064260;28;20198;-59
2023/05/09 09:46:21;;;;;;;6.97;5.03;;;;;;;18.90;72.79;96491.94;2065399;28;20313;-61
2023/05/09 09:47:32;;;;;;;5.82;3.92;;;;;;;18.44;74.34;96489.31;2065195;28;20198;-63
2023/05/09 09:48:35;;;;;;;5.60;3.67;;;;;;;18.67;72.49;96485.81;2063803;28;20206;-62
2023/05/09 09:49:37;;;;;;;4.35;2.90;;;;;;;18.74;73.52;96487.84;2065655;28;20201;-60
2023/05/09 09:50:38;;;;;;;6.30;3.72;;;;;;;18.39;72.87;96480.09;2064751;28;20672;-59
2023/05/09 09:51:40;;;;;;;5.55;3.50;;;;;;;18.52;73.96;96475.47;2056144;28;20234;-60
2023/05/09 09:52:50;;;;;;;5.82;3.95;;;;;;;18.65;74.01;96472.72;2054648;28;20195;-59
2023/05/09 09:53:52;;;;;;;4.85;3.53;;;;;;;18.56;75.16;96484.00;2056665;28;20563;-59
2023/05/09 09:54:56;;;;;;;5.50;3.53;;;;;;;19.05;74.24;96466.88;2054919;28;20206;-60
2023/05/09 09:55:58;;;;;;;7.05;4.53;;;;;;;19.23;73.39;96477.72;2058436;28;20595;-60
2023/05/09 09:57:00;;;;;;;11.68;3.17;;;;;;;18.78;74.95;96469.94;2072272;28;20229;-60
2023/05/09 09:58:14;;;;;;;4.60;3.35;;;;;;;18.87;76.02;96473.63;2072160;28;20240;-60
2023/05/09 09:59:17;;;;;;;4.28;2.97;;;;;;;19.34;73.75;96468.91;2072097;28;20241;-59
2023/05/09 10:00:25;;;;;;;7.22;2.85;;;;;;;19.29;72.89;96465.81;2071285;28;20198;-60
2023/05/09 10:01:26;;;;;;;4.95;2.88;;;;;;;19.22;72.63;96462.00;2069823;28;20233;-60
2023/05/09 10:02:28;;;;;;;5.72;3.47;;;;;;;19.58;71.25;96463.38;2072273;28;20236;-60
2023/05/09 10:03:36;;;;;;;4.30;2.60;;;;;;;19.61;71.08;96456.97;2068384;28;20744;-60
2023/05/09 10:04:41;;;;;;;3.90;2.22;;;;;;;19.82;69.07;96459.66;2068338;28;20824;-60
2023/05/09 10:05:43;;;;;;;2.70;2.15;;;;;;;19.47;68.91;96452.84;2071151;28;20558;-60
2023/05/09 10:06:52;;;;;;;3.35;2.20;;;;;;;19.65;68.00;96453.09;2074549;28;20216;-60
2023/05/09 10:08:01;;;;;;;3.92;2.50;;;;;;;19.58;68.36;96450.13;2071811;28;20198;-59
2023/05/09 10:09:02;;;;;;;6.45;2.40;;;;;;;19.22;68.22;96446.97;2072219;28;20194;-60
2023/05/09 10:10:05;;;;;;;2.90;2.35;;;;;;;19.28;67.53;96453.53;2072038;28;20696;-60
2023/05/09 10:11:07;;;;;;;8.07;2.40;;;;;;;19.57;68.58;96447.63;2071721;28;20923;-60
2023/05/09 10:12:09;;;;;;;5.70;2.65;;;;;;;19.19;69.33;96449.03;2072047;28;20206;-60
2023/05/09 10:13:11;;;;;;;3.20;2.40;;;;;;;19.47;69.14;96436.13;2063553;28;20202;-60
2023/05/09 10:14:13;;;;;;;4.22;2.95;;;;;;;19.70;66.81;96445.59;2064612;28;20842;-59
2023/05/09 10:15:19;;;;;;;4.28;2.78;;;;;;;19.64;67.61;96446.16;2072111;28;20829;-59
2023/05/09 10:16:20;;;;;;;3.72;2.45;;;;;;;19.82;67.96;96441.13;2071902;28;20301;-59
2023/05/09 10:17:40;;;;;;;5.90;2.55;;;;;;;19.86;66.64;96439.88;2071219;28;20202;-60
2023/05/09 10:18:43;;;;;;;2.67;2.15;;;;;;;19.88;66.14;96437.94;2071987;28;20197;-59
2023/05/09 10:19:46;;;;;;;2.90;2.05;;;;;;;20.38;66.47;96436.34;2071613;28;20719;-60
2023/05/09 10:20:48;;;;;;;4.60;2.08;;;;;;;20.59;66.45;96430.94;2070748;28;20197;-59
2023/05/09 10:21:57;;;;;;;4.63;2.10;;;;;;;20.28;66.08;96435.44;2071863;28;20229;-60
2023/05/09 10:23:02;;;;;;;3.38;1.70;;;;;;;20.23;66.57;96435.88;2071421;28;20411;-60
2023/05/09 10:24:04;;;;;;;8.82;1.73;;;;;;;20.34;66.26;96426.97;2072336;28;20194;-59
2023/05/09 10:25:42;;;;;;;3.15;1.90;;;;;;;20.00;65.09;96422.78;2072263;28;20200;-60
2023/05/09 10:26:47;;;;;;;7.55;2.00;;;;;;;20.73;64.53;96423.59;2048668;28;20620;-60
2023/05/09 10:27:52;;;;;;;3.13;2.17;;;;;;;19.73;66.97;96421.53;2072042;28;20635;-60
2023/05/09 10:28:55;;;;;;;7.40;2.22;;;;;;;19.95;66.63;96417.06;2072584;28;20205;-59
2023/05/09 10:30:06;;;;;;;4.18;2.30;;;;;;;20.07;66.17;96420.44;2071660;28;20205;-59
2023/05/09 10:31:15;;;;;;;3.33;1.90;;;;;;;19.53;67.35;96412.63;2070456;28;20257;-59
2023/05/09 10:32:26;;;;;;;3.22;2.08;;;;;;;19.81;66.68;96417.38;2071586;28;20546;-59
2023/05/09 10:33:36;;;;;;;2.90;2.28;;;;;;;19.45;67.37;96412.41;2073932;28;20599;-59
2023/05/09 10:34:43;;;;;;;4.90;2.40;;;;;;;19.58;67.74;96412.25;2071793;28;20529;-59
2023/05/09 10:35:46;;;;;;;3.45;2.20;;;;;;;19.72;67.07;96403.13;2070802;28;20193;-59
2023/05/09 10:36:48;;;;;;;3.58;2.10;;;;;;;19.37;67.89;96407.75;2071797;28;20197;-59
2023/05/09 10:37:52;;;;;;;6.65;2.85;;;;;;;18.71;69.91;96413.19;2072300;28;20240;-59
2023/05/09 10:38:55;;;;;;;5.40;3.65;;;;;;;18.56;70.10;96402.91;2071208;28;20198;-59
2023/05/09 10:39:59;;;;;;;6.28;3.28;;;;;;;19.20;69.66;96406.53;2071723;28;20197;-59
2023/05/09 10:41:01;;;;;;;6.00;2.50;;;;;;;19.27;69.60;96403.38;2069702;28;20222;-59
2023/05/09 10:42:03;;;;;;;3.20;2.28;;;;;;;19.55;68.99;96402.75;2071936;28;20209;-59
2023/05/09 10:43:06;;;;;;;3.65;2.63;;;;;;;19.99;68.21;96409.69;2073171;28;20200;-59
2023/05/09 10:44:08;;;;;;;9.95;3.05;;;;;;;20.11;66.28;96408.59;2071681;28;20205;-59
2023/05/09 10:45:11;;;;;;;5.20;2.85;;;;;;;20.19;65.97;96406.13;2071845;28;20202;-59
2023/05/09 10:46:14;;;;;;;6.55;3.40;;;;;;;19.27;67.37;96401.56;2070166;28;20264;-59
2023/05/09 10:47:16;;;;;;;4.72;2.90;;;;;;;19.55;67.24;96397.44;2071021;28;20245;-58
2023/05/09 10:48:18;;;;;;;6.72;3.10;;;;;;;19.25;69.12;96398.22;2071760;28;20256;-59
2023/05/09 10:49:20;;;;;;;6.40;3.75;;;;;;;19.03;68.88;96399.16;2074395;28;20198;-59
2023/05/09 10:50:22;;;;;;;3.90;2.58;;;;;;;19.31;66.51;96391.56;2064003;28;20194;-58
2023/05/09 10:51:23;;;;;;;5.55;3.63;;;;;;;19.70;65.28;96387.34;2061402;28;20225;-58
2023/05/09 10:52:30;;;;;;;10.93;3.58;;;;;;;19.90;65.66;96388.28;2071726;28;20256;-60
2023/05/09 10:53:49;;;;;;;6.18;4.32;;;;;;;19.28;67.26;96397.97;2072581;28;20209;-58
2023/05/09 10:55:02;;;;;;;6.25;4.30;;;;;;;18.89;67.87;96389.69;2072187;28;20193;-58
2023/05/09 10:56:04;;;;;;;5.30;2.85;;;;;;;19.45;68.14;96388.59;2070121;28;20730;-58
2023/05/09 10:57:08;;;;;;;4.75;3.08;;;;;;;19.46;67.59;96379.69;2071948;28;20205;-58
2023/05/09 10:58:21;;;;;;;6.65;3.35;;;;;;;19.96;67.59;96381.66;2071861;28;20659;-58
2023/05/09 10:59:40;;;;;;;5.47;3.42;;;;;;;19.85;67.56;96379.09;2071587;28;20229;-59
2023/05/09 11:00:41;;;;;;;6.68;3.45;;;;;;;20.18;66.85;96375.28;2070161;28;20197;-59
2023/05/09 11:01:43;;;;;;;10.65;3.45;;;;;;;19.98;67.52;96369.09;2071424;28;20251;-58
2023/05/09 11:03:05;;;;;;;6.80;3.42;;;;;;;20.66;65.83;96368.41;2071803;28;20201;-58
2023/05/09 11:04:15;;;;;;;5.10;2.95;;;;;;;20.75;64.53;96363.28;2071673;28;20389;-58
2023/05/09 11:05:19;;;;;;;4.55;2.83;;;;;;;20.32;64.62;96362.66;2072105;28;20221;-59
2023/05/09 11:06:50;;;;;;;4.40;3.30;;;;;;;20.24;66.38;96358.03;2070901;28;20287;-59
2023/05/09 11:08:25;;;;;;;6.78;3.50;;;;;;;20.52;64.89;96353.75;2071839;28;20201;-59
2023/05/09 11:09:36;;;;;;;7.70;3.28;;;;;;;20.79;64.40;96352.25;2045353;29;20210;-58
2023/05/09 11:10:41;;;;;;;8.63;3.53;;;;;;;20.87;63.51;96344.44;2070883;28;20209;-59
2023/05/09 11:11:56;;;;;;;5.82;3.47;;;;;;;21.13;64.99;96343.03;2070361;28;20213;-60
2023/05/09 11:12:59;;;;;;;7.90;2.55;;;;;;;21.66;62.57;96337.19;2071322;28;20209;-59
2023/05/09 11:14:01;;;;;;;3.10;2.20;;;;;;;21.11;62.47;96343.16;2071574;28;20212;-59
2023/05/09 11:15:06;;;;;;;7.97;3.40;;;;;;;20.56;62.24;96344.53;2071597;28;20288;-59
2023/05/09 11:16:10;;;;;;;6.18;3.30;;;;;;;20.23;63.43;96351.03;2071439;28;20309;-58
2023/05/09 11:17:13;;;;;;;4.85;3.05;;;;;;;19.85;64.14;96337.53;2070871;28;20284;-57
2023/05/09 11:18:14;;;;;;;6.35;3.38;;;;;;;19.95;63.66;96332.28;2070760;28;20204;-57
2023/05/09 11:19:33;;;;;;;8.23;3.67;;;;;;;20.52;63.74;96335.19;2071914;28;20720;-57
2023/05/09 11:20:42;;;;;;;3.95;2.88;;;;;;;20.76;63.29;96339.28;2071620;28;20197;-57
2023/05/09 11:22:00;;;;;;;13.18;8.52;;;;;;;20.20;63.19;96332.75;2070414;28;20209;-57
2023/05/09 11:23:05;;;;;;;14.55;3.70;;;;;;;20.20;63.37;96330.09;2070687;28;20243;-58
2023/05/09 11:24:15;;;;;;;4.15;3.10;;;;;;;19.94;63.42;96332.41;2072289;28;20201;-57
2023/05/09 11:25:24;;;;;;;6.13;3.90;;;;;;;20.28;64.29;96338.22;2071305;28;20232;-57
2023/05/09 11:26:28;;;;;;;7.97;3.70;;;;;;;20.28;64.57;96327.59;2070521;28;20225;-57
2023/05/09 11:27:39;;;;;;;8.13;4.40;;;;;;;20.03;63.82;96324.47;2071667;28;20197;-57
2023/05/09 11:28:41;;;;;;;4.90;3.40;;;;;;;19.85;63.98;96320.81;2072836;28;20197;-58
2023/05/09 11:29:44;;;;;;;5.10;3.78;;;;;;;19.58;64.63;96319.56;2072066;28;20206;-58
2023/05/09 11:30:46;;;;;;;7.35;3.10;;;;;;;19.90;64.25;96322.06;2071613;28;20659;-57
2023/05/09 11:32:09;;;;;;;5.50;3.58;;;;;;;19.81;63.97;96329.97;2071120;28;20198;-57
2023/05/09 11:33:27;;;;;;;5.50;3.40;;;;;;;19.83;64.78;96314.78;2063573;28;20198;-58